Time,TemperatureF,DewpointF,PressureIn,WindDirection,WindDirectionDegrees,WindSpeedMPH,WindSpeedGustMPH,Humidity,HourlyPrecipIn,Conditions,Clouds,dailyrainin,SoftwareType,DateUTC
2013-05-14 00:02:00,54.0,34.0,29.79,South,180,2.0,3.0,47,-99.99,,,-99.99,,2013-05-14 05:02:00,
2013-05-14 00:12:00,54.0,34.0,29.79,South,180,2.0,3.0,47,-99.99,,,-99.99,,2013-05-14 05:12:00,
2013-05-14 00:21:00,54.0,34.0,29.79,South,180,2.0,3.0,47,-99.99,,,-99.99,,2013-05-14 05:21:00,
2013-05-14 00:32:00,53.0,34.0,29.78,SE,135,2.0,3.0,49,-99.99,,,-99.99,,2013-05-14 05:32:00,
2013-05-14 00:42:00,53.0,34.0,29.78,SE,135,2.0,3.0,49,-99.99,,,-99.99,,2013-05-14 05:42:00,
2013-05-14 00:52:00,53.0,34.0,29.78,SE,135,2.0,3.0,49,-99.99,,,-99.99,,2013-05-14 05:52:00,
2013-05-14 01:01:00,52.0,34.0,29.75,ESE,103,3.0,5.0,50,-99.99,,,-99.99,,2013-05-14 06:01:00,
2013-05-14 01:12:00,52.0,34.0,29.75,ESE,103,3.0,5.0,50,-99.99,,,-99.99,,2013-05-14 06:12:00,
2013-05-14 01:22:00,52.0,34.0,29.74,SE,135,1.0,6.0,51,-99.99,,,-99.99,,2013-05-14 06:22:00,
2013-05-14 01:32:00,51.0,34.0,29.73,ESE,110,1.0,3.0,51,-99.99,,,-99.99,,2013-05-14 06:32:00,
2013-05-14 01:42:00,51.0,34.0,29.73,ESE,110,1.0,3.0,51,-99.99,,,-99.99,,2013-05-14 06:42:00,
2013-05-14 01:51:00,51.0,34.0,29.73,ESE,103,1.0,3.0,52,-99.99,,,-99.99,,2013-05-14 06:51:00,
2013-05-14 02:02:00,51.0,34.0,29.72,SE,135,0.0,3.0,52,-99.99,,,-99.99,,2013-05-14 07:02:00,
2013-05-14 02:11:00,51.0,34.0,29.72,SE,135,0.0,3.0,52,-99.99,,,-99.99,,2013-05-14 07:11:00,
2013-05-14 02:21:00,51.0,34.0,29.71,SE,135,1.0,2.0,53,-99.99,,,-99.99,,2013-05-14 07:21:00,
2013-05-14 02:32:00,50.0,34.0,29.70,ESE,110,1.0,2.0,54,-99.99,,,-99.99,,2013-05-14 07:32:00,
2013-05-14 02:41:00,50.0,34.0,29.70,ESE,110,1.0,2.0,54,-99.99,,,-99.99,,2013-05-14 07:41:00,
2013-05-14 02:52:00,50.0,34.0,29.70,ESE,110,1.0,2.0,54,-99.99,,,-99.99,,2013-05-14 07:52:00,
2013-05-14 03:02:00,50.0,34.0,29.68,SE,135,1.0,2.0,55,-99.99,,,-99.99,,2013-05-14 08:02:00,
2013-05-14 03:11:00,50.0,34.0,29.68,SE,135,1.0,2.0,55,-99.99,,,-99.99,,2013-05-14 08:11:00,
2013-05-14 03:21:00,50.0,34.0,29.68,SE,135,0.0,2.0,55,-99.99,,,-99.99,,2013-05-14 08:21:00,
2013-05-14 03:31:00,50.0,34.0,29.67,ESE,117,1.0,1.0,55,-99.99,,,-99.99,,2013-05-14 08:31:00,
2013-05-14 03:41:00,50.0,34.0,29.67,SE,135,1.0,3.0,55,-99.99,,,-99.99,,2013-05-14 08:41:00,
2013-05-14 03:51:00,50.0,34.0,29.67,SE,135,1.0,3.0,55,-99.99,,,-99.99,,2013-05-14 08:51:00,
2013-05-14 04:02:00,50.0,34.0,29.66,South,184,1.0,2.0,55,-99.99,,,-99.99,,2013-05-14 09:02:00,
2013-05-14 04:11:00,50.0,34.0,29.66,South,184,1.0,2.0,55,-99.99,,,-99.99,,2013-05-14 09:11:00,
2013-05-14 04:21:00,50.0,35.0,29.66,SE,135,0.0,0.0,56,-99.99,,,-99.99,,2013-05-14 09:21:00,
2013-05-14 04:32:00,49.0,34.0,29.66,East,90,0.0,0.0,56,-99.99,,,-99.99,,2013-05-14 09:32:00,
2013-05-14 04:44:00,49.0,34.0,29.66,East,90,0.0,0.0,56,-99.99,,,-99.99,,2013-05-14 09:44:00,
2013-05-14 04:54:00,49.0,34.0,29.66,East,90,0.0,0.0,56,-99.99,,,-99.99,,2013-05-14 09:54:00,
2013-05-14 05:04:00,49.0,34.0,29.65,North,0,0.0,0.0,57,-99.99,,,-99.99,,2013-05-14 10:04:00,
2013-05-14 05:14:00,49.0,34.0,29.65,North,0,0.0,0.0,57,-99.99,,,-99.99,,2013-05-14 10:14:00,
2013-05-14 05:25:00,49.0,35.0,29.65,SE,135,0.0,0.0,58,-99.99,,,-99.99,,2013-05-14 10:25:00,
2013-05-14 05:33:00,48.0,35.0,29.64,SE,135,0.0,0.0,60,-99.99,,,-99.99,,2013-05-14 10:33:00,
2013-05-14 05:42:00,48.0,35.0,29.64,SE,135,0.0,0.0,60,-99.99,,,-99.99,,2013-05-14 10:42:00,
2013-05-14 05:52:00,48.0,35.0,29.64,SE,135,0.0,0.0,60,-99.99,,,-99.99,,2013-05-14 10:52:00,
2013-05-14 06:02:00,48.0,35.0,29.64,West,270,0.0,0.0,61,-99.99,,,-99.99,,2013-05-14 11:02:00,
2013-05-14 06:11:00,48.0,35.0,29.64,West,270,0.0,0.0,61,-99.99,,,-99.99,,2013-05-14 11:11:00,
2013-05-14 06:22:00,48.0,36.0,29.64,West,270,0.0,0.0,62,-99.99,,,-99.99,,2013-05-14 11:22:00,
2013-05-14 06:32:00,48.0,36.0,29.64,SW,225,0.0,1.0,64,-99.99,,,-99.99,,2013-05-14 11:32:00,
2013-05-14 06:43:00,48.0,36.0,29.64,SW,225,0.0,1.0,64,-99.99,,,-99.99,,2013-05-14 11:43:00,
2013-05-14 06:52:00,48.0,36.0,29.64,South,180,0.0,0.0,63,-99.99,,,-99.99,,2013-05-14 11:52:00,
2013-05-14 07:02:00,49.0,37.0,29.65,NE,45,0.0,0.0,62,-99.99,,,-99.99,,2013-05-14 12:02:00,
2013-05-14 07:12:00,49.0,37.0,29.65,NE,45,0.0,0.0,62,-99.99,,,-99.99,,2013-05-14 12:12:00,
2013-05-14 07:21:00,50.0,37.0,29.65,NE,45,0.0,0.0,61,-99.99,,,-99.99,,2013-05-14 12:21:00,
2013-05-14 07:32:00,50.0,37.0,29.65,South,180,0.0,0.0,61,-99.99,,,-99.99,,2013-05-14 12:32:00,
2013-05-14 07:42:00,51.0,38.0,29.65,East,90,0.0,0.0,61,-99.99,,,-99.99,,2013-05-14 12:42:00,
2013-05-14 07:51:00,51.0,38.0,29.65,East,90,0.0,0.0,61,-99.99,,,-99.99,,2013-05-14 12:51:00,
2013-05-14 08:01:00,52.0,40.0,29.65,SSW,207,2.0,2.0,64,-99.99,,,-99.99,,2013-05-14 13:01:00,
2013-05-14 08:11:00,52.0,40.0,29.65,SSW,207,2.0,2.0,64,-99.99,,,-99.99,,2013-05-14 13:11:00,
2013-05-14 08:22:00,53.0,41.0,29.64,SSW,213,1.0,3.0,63,-99.99,,,-99.99,,2013-05-14 13:22:00,
2013-05-14 08:32:00,57.0,44.0,29.64,SE,135,0.0,1.0,62,-99.99,,,-99.99,,2013-05-14 13:32:00,
2013-05-14 08:41:00,57.0,44.0,29.64,SE,135,0.0,1.0,62,-99.99,,,-99.99,,2013-05-14 13:41:00,
2013-05-14 08:52:00,57.0,44.0,29.64,SE,135,0.0,1.0,62,-99.99,,,-99.99,,2013-05-14 13:52:00,
2013-05-14 09:01:00,67.0,47.0,29.64,NW,310,2.0,4.0,49,-99.99,,,-99.99,,2013-05-14 14:01:00,
2013-05-14 09:11:00,69.0,48.0,29.64,West,279,3.0,4.0,47,-99.99,,,-99.99,,2013-05-14 14:11:00,
2013-05-14 09:22:00,69.0,48.0,29.64,West,279,3.0,4.0,47,-99.99,,,-99.99,,2013-05-14 14:22:00,
2013-05-14 09:41:00,74.0,49.0,29.65,NNW,345,0.0,1.0,41,-99.99,,,-99.99,,2013-05-14 14:41:00,
2013-05-14 09:52:00,74.0,49.0,29.65,NNW,345,0.0,1.0,41,-99.99,,,-99.99,,2013-05-14 14:52:00,
2013-05-14 10:01:00,76.0,48.0,29.65,NNW,330,0.0,1.0,37,-99.99,,,-99.99,,2013-05-14 15:01:00,
2013-05-14 10:21:00,77.0,48.0,29.65,WNW,296,0.0,2.0,36,-99.99,,,-99.99,,2013-05-14 15:21:00,
2013-05-14 10:33:00,78.0,47.0,29.67,North,0,0.0,1.0,33,-99.99,,,-99.99,,2013-05-14 15:33:00,
2013-05-14 10:43:00,78.0,47.0,29.66,NE,45,0.0,1.0,33,-99.99,,,-99.99,,2013-05-14 15:43:00,
2013-05-14 10:53:00,78.0,47.0,29.66,NE,45,0.0,1.0,33,-99.99,,,-99.99,,2013-05-14 15:53:00,
2013-05-14 11:02:00,81.0,48.0,29.67,NW,310,1.0,1.0,32,-99.99,,,-99.99,,2013-05-14 16:02:00,
2013-05-14 11:23:00,82.0,50.0,29.67,North,0,0.0,2.0,33,-99.99,,,-99.99,,2013-05-14 16:23:00,
2013-05-14 11:33:00,82.0,47.0,29.68,East,90,0.0,0.0,30,-99.99,,,-99.99,,2013-05-14 16:33:00,
2013-05-14 11:54:00,81.0,47.0,29.69,NW,315,0.0,2.0,30,-99.99,,,-99.99,,2013-05-14 16:54:00,
2013-05-14 12:03:00,82.0,47.0,29.68,North,0,0.0,1.0,30,-99.99,,,-99.99,,2013-05-14 17:03:00,
2013-05-14 12:24:00,82.0,47.0,29.69,NW,315,0.0,2.0,30,-99.99,,,-99.99,,2013-05-14 17:24:00,
2013-05-14 12:32:00,83.0,47.0,29.70,NE,45,0.0,0.0,29,-99.99,,,-99.99,,2013-05-14 17:32:00,
2013-05-14 12:52:00,83.0,47.0,29.70,NE,45,1.0,1.0,29,-99.99,,,-99.99,,2013-05-14 17:52:00,
2013-05-14 13:02:00,83.0,47.0,29.71,North,0,0.0,1.0,28,-99.99,,,-99.99,,2013-05-14 18:02:00,
2013-05-14 13:12:00,83.0,47.0,29.71,North,0,0.0,1.0,28,-99.99,,,-99.99,,2013-05-14 18:12:00,
2013-05-14 13:22:00,83.0,47.0,29.71,North,0,0.0,1.0,28,-99.99,,,-99.99,,2013-05-14 18:22:00,
2013-05-14 13:32:00,80.0,46.0,29.72,NE,45,0.0,5.0,30,-99.99,,,-99.99,,2013-05-14 18:32:00,
2013-05-14 13:42:00,80.0,46.0,29.72,NE,45,0.0,5.0,30,-99.99,,,-99.99,,2013-05-14 18:42:00,
2013-05-14 13:52:00,79.0,44.0,29.71,NE,45,0.0,0.0,29,-99.99,,,-99.99,,2013-05-14 18:52:00,
2013-05-14 14:01:00,78.0,44.0,29.70,NE,51,0.0,1.0,30,-99.99,,,-99.99,,2013-05-14 19:01:00,
2013-05-14 14:12:00,78.0,44.0,29.70,NE,51,0.0,1.0,30,-99.99,,,-99.99,,2013-05-14 19:12:00,
2013-05-14 14:22:00,78.0,44.0,29.70,NE,51,0.0,1.0,30,-99.99,,,-99.99,,2013-05-14 19:22:00,
2013-05-14 14:32:00,78.0,44.0,29.70,NE,51,0.0,1.0,30,-99.99,,,-99.99,,2013-05-14 19:32:00,
2013-05-14 14:42:00,78.0,44.0,29.70,NE,51,0.0,1.0,30,-99.99,,,-99.99,,2013-05-14 19:42:00,
2013-05-14 15:33:00,81.0,46.0,29.60,East,96,1.0,3.0,29,-99.99,,,-99.99,,2013-05-14 20:33:00,
2013-05-14 15:44:00,82.0,46.0,29.59,SE,135,1.0,5.0,28,-99.99,,,-99.99,,2013-05-14 20:44:00,
2013-05-14 15:52:00,82.0,46.0,29.59,SE,135,1.0,5.0,28,-99.99,,,-99.99,,2013-05-14 20:52:00,
2013-05-14 16:03:00,83.0,45.0,29.59,SE,140,0.0,5.0,26,-99.99,,,-99.99,,2013-05-14 21:03:00,
2013-05-14 16:12:00,83.0,45.0,29.59,SE,140,0.0,5.0,26,-99.99,,,-99.99,,2013-05-14 21:12:00,
2013-05-14 16:23:00,83.0,46.0,29.60,South,186,2.0,2.0,27,-99.99,,,-99.99,,2013-05-14 21:23:00,
2013-05-14 16:33:00,82.0,46.0,29.57,ESE,121,4.0,4.0,28,-99.99,,,-99.99,,2013-05-14 21:33:00,
2013-05-14 16:43:00,82.0,46.0,29.56,SE,126,4.0,7.0,28,-99.99,,,-99.99,,2013-05-14 21:43:00,
2013-05-14 16:52:00,82.0,46.0,29.56,SE,126,4.0,7.0,28,-99.99,,,-99.99,,2013-05-14 21:52:00,
2013-05-14 17:03:00,82.0,48.0,29.56,ESE,108,3.0,3.0,31,-99.99,,,-99.99,,2013-05-14 22:03:00,
2013-05-14 17:13:00,82.0,48.0,29.56,ESE,108,3.0,3.0,31,-99.99,,,-99.99,,2013-05-14 22:13:00,
2013-05-14 17:24:00,82.0,47.0,29.56,SE,135,2.0,5.0,30,-99.99,,,-99.99,,2013-05-14 22:24:00,
2013-05-14 17:34:00,81.0,49.0,29.55,ESE,121,2.0,4.0,33,-99.99,,,-99.99,,2013-05-14 22:34:00,
2013-05-14 17:45:00,81.0,49.0,29.55,ESE,121,2.0,4.0,33,-99.99,,,-99.99,,2013-05-14 22:45:00,
2013-05-14 17:54:00,81.0,49.0,29.55,ESE,121,2.0,4.0,33,-99.99,,,-99.99,,2013-05-14 22:54:00,
2013-05-14 18:03:00,80.0,50.0,29.53,ESE,112,1.0,5.0,35,-99.99,,,-99.99,,2013-05-14 23:03:00,
2013-05-14 18:12:00,80.0,50.0,29.53,ESE,112,1.0,5.0,35,-99.99,,,-99.99,,2013-05-14 23:12:00,
2013-05-14 18:21:00,80.0,50.0,29.52,SSE,159,2.0,3.0,35,-99.99,,,-99.99,,2013-05-14 23:21:00,
2013-05-14 18:32:00,79.0,50.0,29.50,SE,135,1.0,4.0,37,-99.99,,,-99.99,,2013-05-14 23:32:00,
2013-05-14 18:44:00,79.0,50.0,29.50,SE,135,1.0,4.0,37,-99.99,,,-99.99,,2013-05-14 23:44:00,
2013-05-14 18:52:00,79.0,50.0,29.50,SE,135,1.0,4.0,37,-99.99,,,-99.99,,2013-05-14 23:52:00,
2013-05-14 19:02:00,79.0,53.0,29.50,NE,50,2.0,4.0,40,-99.99,,,-99.99,,2013-05-15 00:02:00,
2013-05-14 19:11:00,79.0,53.0,29.50,NE,50,2.0,4.0,40,-99.99,,,-99.99,,2013-05-15 00:11:00,
2013-05-14 19:21:00,78.0,52.0,29.49,SE,135,1.0,3.0,40,-99.99,,,-99.99,,2013-05-15 00:21:00,
2013-05-14 19:32:00,78.0,52.0,29.48,SE,128,0.0,2.0,41,-99.99,,,-99.99,,2013-05-15 00:32:00,
2013-05-14 19:42:00,78.0,52.0,29.48,SE,128,0.0,2.0,41,-99.99,,,-99.99,,2013-05-15 00:42:00,
2013-05-14 19:51:00,78.0,52.0,29.48,SE,128,0.0,2.0,41,-99.99,,,-99.99,,2013-05-15 00:51:00,
2013-05-14 20:01:00,77.0,51.0,29.47,SE,135,1.0,4.0,40,-99.99,,,-99.99,,2013-05-15 01:01:00,
2013-05-14 20:11:00,77.0,51.0,29.47,SE,135,1.0,4.0,40,-99.99,,,-99.99,,2013-05-15 01:11:00,
2013-05-14 20:22:00,76.0,51.0,29.47,SE,135,0.0,2.0,41,-99.99,,,-99.99,,2013-05-15 01:22:00,
2013-05-14 20:32:00,76.0,51.0,29.47,ESE,110,1.0,2.0,42,-99.99,,,-99.99,,2013-05-15 01:32:00,
2013-05-14 20:42:00,76.0,51.0,29.47,ESE,110,1.0,2.0,42,-99.99,,,-99.99,,2013-05-15 01:42:00,
2013-05-14 20:52:00,76.0,51.0,29.47,ESE,110,1.0,2.0,42,-99.99,,,-99.99,,2013-05-15 01:52:00,
2013-05-14 21:02:00,74.0,51.0,29.47,SE,135,0.0,1.0,44,-99.99,,,-99.99,,2013-05-15 02:02:00,
2013-05-14 21:11:00,74.0,51.0,29.47,SE,135,0.0,1.0,44,-99.99,,,-99.99,,2013-05-15 02:11:00,
2013-05-14 21:21:00,74.0,51.0,29.47,South,180,0.0,2.0,45,-99.99,,,-99.99,,2013-05-15 02:21:00,
2013-05-14 21:31:00,73.0,52.0,29.48,South,180,0.0,1.0,48,-99.99,,,-99.99,,2013-05-15 02:31:00,
2013-05-14 21:42:00,73.0,52.0,29.48,South,180,0.0,1.0,48,-99.99,,,-99.99,,2013-05-15 02:42:00,
2013-05-14 21:52:00,72.0,51.0,29.47,ESE,108,0.0,0.0,47,-99.99,,,-99.99,,2013-05-15 02:52:00,
2013-05-14 22:01:00,72.0,51.0,29.47,South,180,0.0,0.0,48,-99.99,,,-99.99,,2013-05-15 03:01:00,
2013-05-14 22:12:00,72.0,51.0,29.47,South,180,0.0,0.0,48,-99.99,,,-99.99,,2013-05-15 03:12:00,
2013-05-14 22:22:00,72.0,51.0,29.47,South,180,0.0,0.0,48,-99.99,,,-99.99,,2013-05-15 03:22:00,
2013-05-14 22:33:00,70.0,50.0,29.46,SE,135,0.0,0.0,50,-99.99,,,-99.99,,2013-05-15 03:33:00,
2013-05-14 22:44:00,70.0,50.0,29.46,SE,135,0.0,0.0,50,-99.99,,,-99.99,,2013-05-15 03:44:00,
2013-05-14 22:54:00,70.0,50.0,29.46,SE,135,0.0,0.0,50,-99.99,,,-99.99,,2013-05-15 03:54:00,
2013-05-14 23:03:00,69.0,52.0,29.45,SE,135,0.0,1.0,54,-99.99,,,-99.99,,2013-05-15 04:03:00,
2013-05-14 23:12:00,69.0,52.0,29.45,SE,135,0.0,1.0,54,-99.99,,,-99.99,,2013-05-15 04:12:00,
2013-05-14 23:24:00,69.0,52.0,29.45,SE,135,0.0,1.0,54,-99.99,,,-99.99,,2013-05-15 04:24:00,
2013-05-14 23:33:00,67.0,51.0,29.46,South,171,1.0,1.0,57,-99.99,,,-99.99,,2013-05-15 04:33:00,
2013-05-14 23:42:00,67.0,51.0,29.46,South,171,1.0,1.0,57,-99.99,,,-99.99,,2013-05-15 04:42:00,
2013-05-14 23:52:00,67.0,52.0,29.46,South,173,0.0,2.0,58,-99.99,,,-99.99,,2013-05-15 04:52:00,